createdAt,value
2022-08-04T00:00:08.736Z,7.05
2022-08-04T00:03:00.044Z,7.68
2022-08-04T00:05:40.994Z,7.18
2022-08-04T00:08:20.016Z,7.40
2022-08-04T00:10:51.725Z,7.35
2022-08-04T00:13:24.430Z,7.35
2022-08-04T00:15:58.687Z,7.35
2022-08-04T00:18:31.217Z,8.38
2022-08-04T00:21:05.593Z,9.02
2022-08-04T00:24:12.246Z,7.65
2022-08-04T00:26:26.304Z,7.05
2022-08-04T00:28:54.484Z,6.90
2022-08-04T00:31:33.179Z,7.13
2022-08-04T00:34:14.078Z,7.03
2022-08-04T00:36:46.128Z,10.13
2022-08-04T00:39:15.968Z,7.53
2022-08-04T00:41:56.550Z,7.90
2022-08-04T00:44:38.647Z,7.50
2022-08-04T00:47:20.697Z,6.82
2022-08-04T00:50:05.468Z,6.88
2022-08-04T00:52:52.720Z,6.68
2022-08-04T00:55:46.739Z,7.32
2022-08-04T00:58:29.045Z,6.50
2022-08-04T01:01:02.724Z,6.72
2022-08-04T01:03:52.052Z,6.70
2022-08-04T01:06:38.184Z,6.88
2022-08-04T01:09:27.012Z,7.00
2022-08-04T01:12:18.253Z,7.05
2022-08-04T01:15:02.331Z,7.00
2022-08-04T01:17:44.112Z,7.60
2022-08-04T01:20:18.483Z,6.95
2022-08-04T01:23:23.617Z,7.57
2022-08-04T01:26:42.611Z,7.22
2022-08-04T01:29:15.863Z,9.35
2022-08-04T01:32:04.346Z,5.68
2022-08-04T01:34:37.788Z,5.97
2022-08-04T01:37:21.048Z,7.25
2022-08-04T01:39:52.973Z,7.40
2022-08-04T01:42:32.196Z,6.90
2022-08-04T01:45:03.660Z,6.30
2022-08-04T01:47:32.329Z,6.15
2022-08-04T01:50:08.302Z,7.57
2022-08-04T01:52:37.958Z,5.68
2022-08-04T01:55:09.425Z,7.40
2022-08-04T01:57:42.494Z,5.80
2022-08-04T02:00:14.008Z,6.88
2022-08-04T02:02:42.630Z,7.45
2022-08-04T02:05:12.239Z,6.65
2022-08-04T02:07:52.361Z,7.75
2022-08-04T02:10:29.823Z,6.22
2022-08-04T02:13:09.832Z,6.60
2022-08-04T02:15:47.777Z,6.53
2022-08-04T02:18:24.307Z,5.57
2022-08-04T02:20:58.671Z,5.82
2022-08-04T02:23:32.563Z,5.95
2022-08-04T02:26:03.621Z,6.20
2022-08-04T02:28:37.904Z,7.30
2022-08-04T02:31:19.656Z,6.03
2022-08-04T02:33:53.887Z,9.38
2022-08-04T02:36:29.915Z,7.03
2022-08-04T02:39:01.219Z,7.50
2022-08-04T02:41:30.846Z,8.10
2022-08-04T02:44:01.035Z,9.60
2022-08-04T02:46:32.038Z,7.97
2022-08-04T02:49:02.787Z,9.25
2022-08-04T02:51:35.046Z,9.25
2022-08-04T02:54:06.474Z,8.98
2022-08-04T02:56:37.399Z,8.88
2022-08-04T02:59:08.151Z,8.43
2022-08-04T03:01:38.226Z,7.53
2022-08-04T03:04:38.938Z,8.00
2022-08-04T03:07:34.287Z,8.00
2022-08-04T03:10:40.446Z,8.02
2022-08-04T03:13:39.720Z,8.73
2022-08-04T03:16:52.444Z,9.18
2022-08-04T03:20:01.852Z,8.00
2022-08-04T03:23:13.593Z,8.43
2022-08-04T03:26:20.488Z,8.05
2022-08-04T03:29:36.194Z,8.23
2022-08-04T03:32:38.645Z,8.23
2022-08-04T03:35:31.289Z,8.30
2022-08-04T03:38:18.782Z,7.93
2022-08-04T03:41:17.757Z,10.15
2022-08-04T03:44:29.501Z,7.35
2022-08-04T03:47:27.207Z,7.85
2022-08-04T03:50:29.943Z,7.47
2022-08-04T03:53:33.460Z,8.68
2022-08-04T03:56:33.071Z,7.60
2022-08-04T03:59:31.092Z,6.93
2022-08-04T04:02:34.177Z,6.55
2022-08-04T04:05:30.602Z,6.65
2022-08-04T04:08:33.672Z,7.03
2022-08-04T04:11:29.642Z,7.93
2022-08-04T04:14:20.775Z,7.28
2022-08-04T04:17:05.361Z,7.13
2022-08-04T04:19:52.825Z,7.68
2022-08-04T04:22:39.701Z,9.80
2022-08-04T04:25:32.326Z,6.97
2022-08-04T04:28:46.599Z,9.18
2022-08-04T04:31:36.065Z,7.38
2022-08-04T04:34:18.223Z,9.52
2022-08-04T04:36:59.253Z,8.10
2022-08-04T04:39:39.914Z,7.63
2022-08-04T04:42:39.478Z,15.07
2022-08-04T04:45:20.396Z,9.52
2022-08-04T04:48:08.441Z,8.90
2022-08-04T04:50:52.782Z,7.38
2022-08-04T04:53:28.573Z,8.57
2022-08-04T04:56:04.676Z,6.82
2022-08-04T04:58:35.385Z,7.07
2022-08-04T05:01:18.104Z,9.07
2022-08-04T05:04:10.038Z,7.95
2022-08-04T05:06:54.243Z,8.43
2022-08-04T05:09:38.712Z,10.27
2022-08-04T05:14:33.310Z,7.97
2022-08-04T05:15:32.493Z,11.40
2022-08-04T05:18:03.366Z,8.80
2022-08-04T05:20:45.106Z,8.48
2022-08-04T05:23:17.021Z,8.85
2022-08-04T05:25:50.098Z,7.28
2022-08-04T05:28:30.978Z,11.43
2022-08-04T05:31:02.105Z,8.68
2022-08-04T05:33:35.936Z,7.65
2022-08-04T05:36:21.715Z,7.80
2022-08-04T05:39:03.298Z,7.45
2022-08-04T05:41:45.656Z,7.30
2022-08-04T05:44:17.016Z,7.47
2022-08-04T05:46:53.808Z,8.15
2022-08-04T05:49:24.398Z,7.10
2022-08-04T05:51:55.092Z,7.32
2022-08-04T05:54:24.196Z,8.38
2022-08-04T05:56:52.651Z,8.20
2022-08-04T05:59:23.729Z,6.70
2022-08-04T06:01:55.477Z,7.25
2022-08-04T06:04:26.307Z,8.30
2022-08-04T06:06:56.465Z,6.32
2022-08-04T06:09:24.799Z,9.13
2022-08-04T06:12:03.019Z,7.53
2022-08-04T06:14:36.897Z,7.55
2022-08-04T06:18:33.110Z,8.80
2022-08-04T06:20:18.419Z,6.97
2022-08-04T06:22:48.537Z,7.55
2022-08-04T06:25:20.943Z,7.07
2022-08-04T06:27:51.177Z,8.82
2022-08-04T06:30:21.069Z,7.50
2022-08-04T06:33:03.506Z,7.68
2022-08-04T06:35:34.510Z,7.30
2022-08-04T06:38:04.608Z,7.07
2022-08-04T06:40:34.656Z,8.15
2022-08-04T06:43:04.193Z,7.28
2022-08-04T06:45:35.321Z,6.20
2022-08-04T06:48:04.837Z,8.27
2022-08-04T06:51:27.745Z,7.47
2022-08-04T06:53:26.203Z,10.27
2022-08-04T06:55:56.734Z,9.05
2022-08-04T06:58:25.901Z,9.35
2022-08-04T07:01:01.706Z,8.18
2022-08-04T07:03:32.321Z,8.68
2022-08-04T07:06:06.452Z,7.50
2022-08-04T07:08:44.573Z,8.98
2022-08-04T07:11:13.643Z,8.05
2022-08-04T07:13:45.378Z,6.57
2022-08-04T07:16:16.036Z,11.75
2022-08-04T07:18:44.240Z,9.80
2022-08-04T07:21:12.848Z,10.65
2022-08-04T07:23:40.968Z,10.18
2022-08-04T07:26:13.083Z,11.55
2022-08-04T07:28:42.568Z,9.50
2022-08-04T07:31:33.852Z,9.98
2022-08-04T07:34:17.726Z,13.90
2022-08-04T07:36:55.209Z,8.98
2022-08-04T07:39:28.299Z,9.82
2022-08-04T07:42:01.196Z,9.15
2022-08-04T07:44:31.589Z,9.65
2022-08-04T07:47:00.399Z,9.63
2022-08-04T07:49:55.823Z,9.65
2022-08-04T07:52:17.846Z,10.75
2022-08-04T07:54:46.785Z,8.50
2022-08-04T07:57:20.958Z,11.55
2022-08-04T08:00:08.108Z,10.35
2022-08-04T08:02:36.720Z,10.25
2022-08-04T08:05:05.610Z,7.10
2022-08-04T08:07:33.751Z,8.45
2022-08-04T08:10:01.786Z,6.53
2022-08-04T08:12:35.113Z,8.35
2022-08-04T08:15:19.547Z,6.45
2022-08-04T08:17:58.624Z,6.05
2022-08-04T08:20:31.653Z,5.65
2022-08-04T08:23:01.166Z,5.32
2022-08-04T08:25:30.780Z,5.80
2022-08-04T08:28:00.807Z,6.85
2022-08-04T08:30:32.143Z,5.13
2022-08-04T08:33:05.780Z,5.93
2022-08-04T08:35:53.431Z,4.05
2022-08-04T08:38:32.178Z,6.32
2022-08-04T08:41:19.469Z,7.13
2022-08-04T08:44:07.662Z,7.32
2022-08-04T08:46:53.827Z,5.00
2022-08-04T08:50:02.848Z,4.20
2022-08-04T08:52:56.300Z,4.72
2022-08-04T08:55:46.997Z,8.32
2022-08-04T08:58:30.907Z,4.15
2022-08-04T09:01:11.455Z,4.82
2022-08-04T09:04:03.220Z,4.88
2022-08-04T09:06:55.393Z,4.15
2022-08-04T09:09:50.816Z,5.28
2022-08-04T09:12:29.344Z,5.80
2022-08-04T09:15:05.330Z,4.38
2022-08-04T09:17:43.238Z,5.85
2022-08-04T09:20:19.689Z,6.43
2022-08-04T09:22:53.060Z,4.68
2022-08-04T09:25:26.278Z,7.63
2022-08-04T09:27:56.715Z,6.22
2022-08-04T09:30:33.888Z,5.55
2022-08-04T09:33:17.371Z,4.90
2022-08-04T09:35:58.301Z,3.25
2022-08-04T09:38:36.109Z,3.63
2022-08-04T09:41:20.658Z,3.95
2022-08-04T09:44:49.356Z,4.63
2022-08-04T09:46:54.450Z,5.53
2022-08-04T09:49:31.550Z,3.10
2022-08-04T09:52:09.019Z,2.58
2022-08-04T09:54:49.650Z,3.53
2022-08-04T09:57:37.791Z,4.22
2022-08-04T10:00:09.156Z,3.47
2022-08-04T10:02:39.769Z,2.63
2022-08-04T10:05:15.945Z,2.30
2022-08-04T10:07:59.617Z,2.70
2022-08-04T10:10:56.042Z,3.55
2022-08-04T10:13:31.107Z,2.53
2022-08-04T10:16:26.140Z,2.42
2022-08-04T10:19:08.042Z,4.22
2022-08-04T10:21:59.082Z,3.40
2022-08-04T10:24:40.339Z,4.03
2022-08-04T10:27:12.073Z,3.10
2022-08-04T10:29:45.553Z,6.75
2022-08-04T10:32:19.360Z,3.45
2022-08-04T10:35:02.603Z,2.70
2022-08-04T10:37:59.007Z,3.20
2022-08-04T10:40:45.193Z,2.10
2022-08-04T10:43:26.948Z,2.35
2022-08-04T10:45:59.838Z,2.47
2022-08-04T10:48:37.516Z,2.88
2022-08-04T10:51:20.098Z,2.50
2022-08-04T10:53:55.417Z,2.35
2022-08-04T10:56:30.936Z,2.20
2022-08-04T10:59:04.289Z,3.58
2022-08-04T11:02:00.596Z,2.03
2022-08-04T11:04:30.803Z,3.80
2022-08-04T11:07:00.654Z,2.08
2022-08-04T11:09:31.644Z,2.00
2022-08-04T11:12:08.217Z,2.30
2022-08-04T11:14:41.459Z,4.63
2022-08-04T11:17:16.755Z,3.22
2022-08-04T11:19:53.907Z,2.30
2022-08-04T11:22:27.711Z,2.75
2022-08-04T11:25:09.652Z,2.30
2022-08-04T11:27:45.377Z,3.20
2022-08-04T11:30:17.786Z,2.58
2022-08-04T11:32:54.690Z,3.03
2022-08-04T11:35:32.056Z,2.83
2022-08-04T11:38:10.283Z,3.13
2022-08-04T11:41:02.213Z,3.25
2022-08-04T11:44:01.608Z,3.80
2022-08-04T11:46:30.465Z,3.05
2022-08-04T11:49:04.452Z,3.85
2022-08-04T11:51:35.069Z,3.22
2022-08-04T11:54:03.332Z,3.22
2022-08-04T11:56:37.158Z,2.80
2022-08-04T11:59:08.456Z,2.20
2022-08-04T12:01:48.920Z,4.85
2022-08-04T12:04:26.847Z,2.38
2022-08-04T12:07:21.618Z,3.88
2022-08-04T12:09:59.863Z,2.15
2022-08-04T12:12:36.090Z,2.70
2022-08-04T12:15:15.498Z,2.30
2022-08-04T12:17:52.534Z,2.97
2022-08-04T12:20:31.818Z,2.25
2022-08-04T12:23:16.719Z,2.80
2022-08-04T12:25:49.426Z,2.30
2022-08-04T12:28:25.997Z,5.10
2022-08-04T12:31:04.410Z,2.80
2022-08-04T12:34:04.453Z,3.38
2022-08-04T12:36:34.908Z,2.20
2022-08-04T12:39:10.650Z,2.25
2022-08-04T12:41:46.653Z,2.15
2022-08-04T12:44:36.126Z,2.45
2022-08-04T12:47:28.423Z,5.78
2022-08-04T12:50:00.933Z,3.45
2022-08-04T12:53:00.485Z,2.42
2022-08-04T12:55:23.989Z,2.50
2022-08-04T12:57:53.494Z,4.10
2022-08-04T13:00:31.341Z,2.15
2022-08-04T13:03:09.618Z,2.63
2022-08-04T13:05:40.369Z,2.38
2022-08-04T13:08:10.360Z,2.50
2022-08-04T13:10:40.716Z,3.00
2022-08-04T13:13:15.398Z,2.00
2022-08-04T13:15:47.559Z,3.85
2022-08-04T13:18:29.661Z,2.00
2022-08-04T13:21:20.866Z,2.28
2022-08-04T13:24:20.573Z,2.22
2022-08-04T13:26:55.357Z,1.80
2022-08-04T13:30:00.304Z,2.22
2022-08-04T13:32:20.458Z,2.85
2022-08-04T13:34:52.435Z,2.42
2022-08-04T13:37:23.707Z,2.45
2022-08-04T13:39:55.552Z,1.95
2022-08-04T13:42:26.833Z,1.75
2022-08-04T13:44:57.286Z,3.63
2022-08-04T13:47:31.421Z,2.67
2022-08-04T13:50:26.308Z,2.83
2022-08-04T13:52:55.990Z,2.20
2022-08-04T13:55:27.655Z,1.88
2022-08-04T13:58:00.368Z,2.03
2022-08-04T14:00:41.641Z,2.92
2022-08-04T14:03:22.999Z,2.38
2022-08-04T14:06:15.813Z,1.80
2022-08-04T14:08:55.520Z,2.45
2022-08-04T14:12:09.050Z,2.65
2022-08-04T14:14:23.843Z,2.53
2022-08-04T14:17:04.112Z,2.50
2022-08-04T14:19:51.447Z,1.90
2022-08-04T14:22:34.843Z,2.20
2022-08-04T14:25:06.084Z,2.90
2022-08-04T14:27:43.955Z,2.58
2022-08-04T14:30:27.855Z,2.05
2022-08-04T14:34:01.917Z,1.73
2022-08-04T14:36:01.716Z,3.38
2022-08-04T14:38:48.260Z,3.05
2022-08-04T14:41:17.822Z,3.05
2022-08-04T14:43:47.868Z,3.22
2022-08-04T14:46:16.778Z,2.38
2022-08-04T14:49:10.133Z,2.03
2022-08-04T14:51:42.228Z,4.28
2022-08-04T14:54:17.260Z,3.30
2022-08-04T14:56:54.778Z,1.80
2022-08-04T14:59:24.579Z,1.90
2022-08-04T15:02:01.150Z,2.47
2022-08-04T15:04:32.306Z,2.33
2022-08-04T15:07:04.699Z,2.35
2022-08-04T15:09:33.841Z,2.50
2022-08-04T15:12:02.786Z,2.22
2022-08-04T15:14:37.586Z,2.95
2022-08-04T15:17:12.401Z,2.47
2022-08-04T15:19:56.805Z,5.63
2022-08-04T15:22:27.132Z,2.65
2022-08-04T15:24:56.084Z,2.50
2022-08-04T15:27:27.159Z,3.70
2022-08-04T15:30:01.532Z,3.30
2022-08-04T15:32:31.828Z,2.40
2022-08-04T15:35:03.854Z,2.90
2022-08-04T15:37:46.893Z,3.65
2022-08-04T15:40:17.887Z,4.88
2022-08-04T15:43:32.955Z,3.58
2022-08-04T15:46:43.241Z,2.63
2022-08-04T15:48:53.160Z,3.30
2022-08-04T15:51:32.153Z,2.72
2022-08-04T15:54:27.900Z,2.50
2022-08-04T15:57:01.955Z,3.45
2022-08-04T16:00:15.205Z,3.00
2022-08-04T16:02:44.674Z,2.67
2022-08-04T16:05:39.327Z,3.05
2022-08-04T16:08:17.992Z,2.92
2022-08-04T16:10:52.575Z,3.30
2022-08-04T16:13:22.325Z,2.83
2022-08-04T16:15:52.998Z,2.80
2022-08-04T16:18:37.426Z,2.60
2022-08-04T16:21:07.170Z,2.42
2022-08-04T16:24:05.293Z,2.60
2022-08-04T16:26:55.077Z,3.72
2022-08-04T16:29:39.147Z,2.63
2022-08-04T16:32:20.157Z,4.03
2022-08-04T16:34:54.794Z,3.35
2022-08-04T16:37:30.268Z,3.22
2022-08-04T16:40:28.569Z,7.50
2022-08-04T16:43:07.205Z,2.90
2022-08-04T16:45:47.319Z,3.22
2022-08-04T16:48:16.830Z,3.47
2022-08-04T16:50:50.888Z,4.60
2022-08-04T16:53:57.834Z,2.83
2022-08-04T16:56:10.954Z,3.88
2022-08-04T16:58:53.788Z,2.78
2022-08-04T17:01:33.236Z,3.08
2022-08-04T17:04:06.313Z,2.80
2022-08-04T17:06:36.403Z,2.70
2022-08-04T17:09:06.992Z,4.22
2022-08-04T17:11:35.171Z,3.33
2022-08-04T17:14:06.331Z,3.75
2022-08-04T17:16:36.361Z,4.30
2022-08-04T17:19:19.995Z,2.90
2022-08-04T17:21:58.832Z,2.70
2022-08-04T17:24:30.779Z,7.70
2022-08-04T17:26:59.223Z,9.85
2022-08-04T17:29:43.451Z,4.63
2022-08-04T17:32:15.984Z,5.22
2022-08-04T17:34:48.669Z,2.90
2022-08-04T17:37:38.476Z,4.65
2022-08-04T17:40:11.438Z,3.65
2022-08-04T17:42:41.995Z,3.30
2022-08-04T17:48:02.877Z,4.13
2022-08-04T17:50:35.609Z,3.42
2022-08-04T17:53:12.563Z,4.22
2022-08-04T17:55:43.288Z,3.40
2022-08-04T17:58:20.903Z,3.20
2022-08-04T18:01:22.591Z,5.65
2022-08-04T18:03:52.886Z,3.40
2022-08-04T18:06:23.067Z,3.72
2022-08-04T18:08:57.763Z,4.25
2022-08-04T18:11:29.821Z,3.30
2022-08-04T18:14:09.786Z,4.47
2022-08-04T18:16:45.738Z,5.72
2022-08-04T18:19:18.857Z,3.95
2022-08-04T18:21:59.558Z,4.03
2022-08-04T18:24:36.044Z,4.10
2022-08-04T18:27:20.149Z,5.20
2022-08-04T18:30:15.372Z,4.90
2022-08-04T18:32:51.292Z,4.82
2022-08-04T18:35:25.753Z,17.85
2022-08-04T18:38:23.466Z,5.78
2022-08-04T18:40:53.162Z,6.10
2022-08-04T18:46:14.709Z,4.38
2022-08-04T18:48:52.209Z,6.03
2022-08-04T18:54:10.138Z,4.05
2022-08-04T18:56:38.308Z,6.18
2022-08-04T18:59:26.248Z,4.93
2022-08-04T19:02:13.040Z,5.68
2022-08-04T19:04:44.536Z,11.10
2022-08-04T19:07:29.614Z,4.68
2022-08-04T19:09:59.872Z,4.97
2022-08-04T19:12:29.079Z,8.05
2022-08-04T19:15:08.660Z,5.03
2022-08-04T19:17:53.506Z,7.15
2022-08-04T19:20:27.186Z,4.68
2022-08-04T19:24:10.978Z,4.90
2022-08-04T19:26:02.869Z,7.53
2022-08-04T19:28:35.142Z,7.57
2022-08-04T19:31:04.200Z,5.40
2022-08-04T19:33:58.710Z,7.55
2022-08-04T19:36:27.800Z,5.43
2022-08-04T19:38:58.083Z,6.40
2022-08-04T19:41:26.985Z,7.50
2022-08-04T19:43:55.773Z,6.97
2022-08-04T19:46:25.609Z,5.97
2022-08-04T19:49:00.295Z,7.97
2022-08-04T19:51:32.673Z,6.63
2022-08-04T19:54:02.711Z,6.25
2022-08-04T19:56:40.233Z,6.88
2022-08-04T19:59:11.637Z,6.78
2022-08-04T20:01:45.391Z,5.85
2022-08-04T20:04:13.926Z,11.88
2022-08-04T20:06:43.655Z,11.55
2022-08-04T20:09:24.652Z,8.73
2022-08-04T20:11:54.562Z,11.60
2022-08-04T20:14:32.376Z,7.25
2022-08-04T20:17:03.195Z,8.05
2022-08-04T20:19:37.946Z,6.70
2022-08-04T20:22:50.977Z,6.05
2022-08-04T20:25:10.968Z,18.48
2022-08-04T20:28:00.125Z,6.43
2022-08-04T20:30:29.117Z,5.30
2022-08-04T20:32:57.199Z,6.90
2022-08-04T20:35:27.097Z,4.57
2022-08-04T20:38:01.359Z,8.07
2022-08-04T20:40:30.056Z,8.82
2022-08-04T20:42:58.334Z,25.00
2022-08-04T20:45:55.841Z,12.02
2022-08-04T20:48:15.093Z,5.95
2022-08-04T20:50:46.161Z,7.53
2022-08-04T20:53:16.953Z,7.93
2022-08-04T20:55:55.102Z,10.38
2022-08-04T20:58:27.719Z,5.43
2022-08-04T21:00:57.236Z,5.72
2022-08-04T21:03:49.272Z,5.80
2022-08-04T21:06:13.455Z,5.78
2022-08-04T21:08:57.233Z,6.32
2022-08-04T21:11:32.622Z,5.60
2022-08-04T21:14:01.204Z,6.22
2022-08-04T21:16:53.927Z,5.50
2022-08-04T21:19:17.714Z,9.32
2022-08-04T21:21:53.247Z,5.13
2022-08-04T21:24:26.009Z,7.55
2022-08-04T21:26:58.095Z,5.97
2022-08-04T21:29:29.570Z,6.75
2022-08-04T21:32:05.878Z,7.10
2022-08-04T21:34:39.632Z,7.90
2022-08-04T21:37:10.065Z,6.75
2022-08-04T21:42:42.607Z,6.18
2022-08-04T21:45:17.579Z,4.72
2022-08-04T21:47:49.514Z,5.40
2022-08-04T21:53:07.254Z,5.45
2022-08-04T21:56:06.355Z,5.32
2022-08-04T21:58:32.359Z,4.47
2022-08-04T22:01:01.006Z,6.60
2022-08-04T22:03:52.694Z,4.85
2022-08-04T22:09:14.748Z,5.40
2022-08-04T22:11:50.319Z,5.30
2022-08-04T22:14:29.115Z,5.30
2022-08-04T22:17:02.475Z,5.30
2022-08-04T22:19:50.739Z,7.22
2022-08-04T22:22:25.144Z,6.78
2022-08-04T22:24:55.251Z,5.60
2022-08-04T22:27:42.261Z,5.82
2022-08-04T22:30:17.674Z,5.72
2022-08-04T22:32:47.113Z,4.85
2022-08-04T22:35:36.568Z,4.80
2022-08-04T22:38:06.898Z,5.22
2022-08-04T22:40:38.359Z,4.72
2022-08-04T22:43:33.276Z,5.93
2022-08-04T22:45:55.731Z,4.65
2022-08-04T22:48:23.948Z,6.68
2022-08-04T22:50:56.099Z,4.43
2022-08-04T22:53:24.402Z,5.25
2022-08-04T22:56:06.557Z,4.78
2022-08-04T22:58:40.179Z,5.13
2022-08-04T23:01:08.979Z,4.60
2022-08-04T23:03:38.462Z,4.75
2022-08-04T23:06:11.072Z,5.60
2022-08-04T23:08:43.282Z,6.03
2022-08-04T23:11:15.495Z,9.10
2022-08-04T23:13:45.494Z,6.05
2022-08-04T23:16:15.340Z,4.60
2022-08-04T23:18:49.040Z,5.00
2022-08-04T23:21:24.412Z,4.80
2022-08-04T23:24:02.237Z,5.28
2022-08-04T23:26:31.314Z,4.95
2022-08-04T23:29:03.734Z,7.45
2022-08-04T23:31:40.566Z,5.53
2022-08-04T23:34:18.679Z,5.25
2022-08-04T23:36:47.524Z,6.45
2022-08-04T23:39:15.908Z,5.18
2022-08-04T23:41:53.611Z,6.15
2022-08-04T23:44:26.813Z,5.38
2022-08-04T23:47:01.764Z,6.40
2022-08-04T23:49:43.389Z,7.38
2022-08-04T23:52:12.962Z,5.75
2022-08-04T23:54:52.032Z,5.15
2022-08-04T23:57:21.080Z,6.20
2022-08-04T23:59:55.065Z,5.30
